Time;durP1;ratioP1;P1;durP2;ratioP2;P2;SDS_P1;SDS_P2;PMS_P1;PMS_P2;Temp;Humidity;BMP_temperature;BMP_pressure;BME280_temperature;BME280_humidity;BME280_pressure;Samples;Min_cycle;Max_cycle;Signal;HPM_P1;HPM_P2
2023/11/24 00:02:01;;;;;;;6.03;0.20;;;9.00;99.90;;;;;;4979658;28;20714;-81
2023/11/24 00:04:27;;;;;;;0.67;0.33;;;8.70;99.90;;;;;;5010978;28;20218;-84
2023/11/24 00:06:53;;;;;;;0.97;0.70;;;8.50;99.90;;;;;;4980695;28;20222;-84
2023/11/24 00:09:19;;;;;;;0.30;0.30;;;8.40;99.90;;;;;;4964310;28;20248;-81
2023/11/24 00:11:46;;;;;;;0.40;0.40;;;8.40;99.90;;;;;;4961860;28;20306;-84
2023/11/24 00:14:13;;;;;;;0.27;0.27;;;8.40;99.90;;;;;;4980085;28;20195;-82
2023/11/24 00:16:39;;;;;;;1.23;0.53;;;8.40;99.90;;;;;;4994945;28;20222;-81
2023/11/24 00:19:10;;;;;;;0.73;0.73;;;8.30;99.90;;;;;;4959447;28;20733;-84
2023/11/24 00:21:37;;;;;;;0.20;0.20;;;8.20;99.90;;;;;;5003523;28;20266;-83
2023/11/24 00:24:04;;;;;;;1.27;0.17;;;8.20;99.90;;;;;;5003762;28;20307;-83
2023/11/24 00:26:33;;;;;;;0.60;0.60;;;8.20;99.90;;;;;;4955732;28;20295;-82
2023/11/24 00:29:00;;;;;;;0.30;0.30;;;8.20;99.90;;;;;;5006126;28;20194;-84
2023/11/24 00:31:28;;;;;;;0.70;0.70;;;8.30;99.90;;;;;;4991823;28;20582;-83
2023/11/24 00:33:55;;;;;;;0.40;0.40;;;8.30;99.90;;;;;;4991512;28;20214;-85
2023/11/24 00:36:22;;;;;;;1.17;1.17;;;8.50;99.90;;;;;;4994692;28;20210;-84
2023/11/24 00:38:51;;;;;;;0.40;0.40;;;8.50;99.90;;;;;;4999525;28;20238;-84
2023/11/24 00:41:17;;;;;;;0.30;0.30;;;8.50;99.90;;;;;;4999159;28;20326;-86
2023/11/24 00:43:45;;;;;;;0.20;0.20;;;8.60;99.90;;;;;;5005621;28;20223;-83
2023/11/24 00:46:11;;;;;;;2.37;0.57;;;8.70;99.90;;;;;;5004503;28;20280;-82
2023/11/24 00:48:40;;;;;;;0.20;0.20;;;8.90;99.90;;;;;;5000608;28;20254;-83
2023/11/24 00:51:07;;;;;;;6.60;0.47;;;8.90;99.90;;;;;;4991405;28;20215;-82
2023/11/24 00:53:33;;;;;;;6.40;0.40;;;8.90;99.90;;;;;;4975552;28;20671;-84
2023/11/24 00:55:59;;;;;;;2.07;0.67;;;8.90;99.90;;;;;;5000679;28;20718;-85
2023/11/24 00:58:25;;;;;;;1.43;0.47;;;8.80;99.90;;;;;;4998827;28;20240;-82
2023/11/24 01:00:52;;;;;;;0.93;0.60;;;8.90;99.90;;;;;;4985392;28;20231;-83
2023/11/24 01:03:18;;;;;;;0.73;0.73;;;8.50;99.90;;;;;;5010145;28;20215;-84
2023/11/24 01:05:45;;;;;;;0.10;0.10;;;8.10;99.90;;;;;;4993315;28;20225;-83
2023/11/24 01:08:10;;;;;;;0.17;0.17;;;7.90;99.90;;;;;;5019169;28;20199;-84
2023/11/24 01:10:36;;;;;;;0.20;0.20;;;7.80;99.90;;;;;;5003737;28;20238;-83
2023/11/24 01:13:02;;;;;;;0.17;0.17;;;7.90;99.90;;;;;;5026334;28;20261;-82
2023/11/24 01:15:31;;;;;;;0.67;0.67;;;7.90;99.90;;;;;;5042209;28;20226;-82
2023/11/24 01:17:59;;;;;;;2.00;1.17;;;8.00;99.90;;;;;;4993603;28;20222;-84
2023/11/24 01:20:25;;;;;;;0.17;0.17;;;8.00;99.90;;;;;;5010493;28;20738;-84
2023/11/24 01:22:51;;;;;;;0.63;0.27;;;8.20;99.90;;;;;;5009926;28;20941;-83
2023/11/24 01:25:16;;;;;;;0.10;0.10;;;8.40;99.90;;;;;;5001106;28;20238;-84
2023/11/24 01:27:42;;;;;;;0.67;0.67;;;8.60;99.90;;;;;;5025715;28;20222;-84
2023/11/24 01:30:09;;;;;;;0.10;0.10;;;8.60;99.90;;;;;;5026696;28;20533;-84
2023/11/24 01:32:35;;;;;;;0.37;0.37;;;8.60;99.90;;;;;;5008403;28;20191;-83
2023/11/24 01:35:01;;;;;;;0.30;0.30;;;8.70;99.90;;;;;;4992469;28;20202;-84
2023/11/24 01:37:27;;;;;;;0.67;0.67;;;8.70;99.90;;;;;;5006404;28;20218;-83
2023/11/24 01:39:53;;;;;;;0.50;0.50;;;8.70;99.90;;;;;;5009015;28;20226;-83
2023/11/24 01:42:19;;;;;;;0.10;0.10;;;8.70;99.90;;;;;;5023525;28;20230;-83
2023/11/24 01:44:45;;;;;;;2.73;0.63;;;8.90;99.90;;;;;;5025234;28;20226;-83
2023/11/24 01:47:11;;;;;;;0.53;0.53;;;8.90;99.90;;;;;;5002134;28;20202;-83
2023/11/24 01:49:38;;;;;;;0.20;0.20;;;8.90;99.90;;;;;;5025699;28;20337;-83
2023/11/24 01:52:05;;;;;;;0.13;0.13;;;8.90;99.90;;;;;;5024868;28;20238;-83
2023/11/24 01:54:36;;;;;;;0.30;0.30;;;8.90;99.90;;;;;;5009387;28;20277;-83
2023/11/24 01:57:07;;;;;;;0.40;0.40;;;9.00;99.90;;;;;;5024271;28;20678;-84
2023/11/24 01:59:36;;;;;;;0.10;0.10;;;9.00;99.90;;;;;;5005636;28;20239;-83
2023/11/24 02:02:03;;;;;;;0.10;0.10;;;9.00;99.90;;;;;;4989794;28;21039;-83
2023/11/24 02:04:29;;;;;;;0.40;0.40;;;9.00;99.90;;;;;;4982466;28;20222;-82
2023/11/24 02:06:57;;;;;;;0.43;0.40;;;8.90;99.90;;;;;;4956417;28;20245;-82
2023/11/24 02:09:24;;;;;;;0.20;0.20;;;8.70;99.90;;;;;;4987763;28;20219;-82
2023/11/24 02:11:50;;;;;;;0.33;0.33;;;8.60;99.90;;;;;;4988039;28;20722;-82
2023/11/24 02:14:15;;;;;;;1.03;0.40;;;8.60;99.90;;;;;;4987665;28;20671;-81
2023/11/24 02:16:41;;;;;;;0.20;0.20;;;8.60;99.90;;;;;;4955363;28;20227;-82
2023/11/24 02:19:07;;;;;;;0.97;0.97;;;8.50;99.90;;;;;;4972550;28;20378;-82
2023/11/24 02:21:33;;;;;;;0.97;0.97;;;8.50;99.90;;;;;;4972530;28;20222;-83
2023/11/24 02:23:59;;;;;;;1.60;0.50;;;8.60;99.90;;;;;;4972801;28;20629;-83
2023/11/24 02:26:25;;;;;;;8.73;0.67;;;8.70;99.90;;;;;;4987330;28;20217;-83
2023/11/24 02:28:51;;;;;;;0.93;0.30;;;8.70;99.90;;;;;;4984447;28;20270;-84
2023/11/24 02:31:17;;;;;;;0.20;0.20;;;8.60;99.90;;;;;;4983825;28;21280;-83
2023/11/24 02:33:44;;;;;;;0.83;0.40;;;8.50;99.90;;;;;;4953003;28;20226;-84
2023/11/24 02:36:17;;;;;;;0.20;0.20;;;8.70;99.90;;;;;;4990754;28;20239;-85
2023/11/24 02:38:46;;;;;;;0.20;0.20;;;8.60;99.90;;;;;;4998042;28;20717;-85
2023/11/24 02:41:22;;;;;;;0.20;0.20;;;8.60;99.90;;;;;;4981999;28;20200;-83
2023/11/24 02:43:48;;;;;;;4.10;2.93;;;8.60;99.90;;;;;;4988911;28;20229;-83
2023/11/24 02:46:15;;;;;;;0.10;0.10;;;8.50;99.90;;;;;;4972369;28;20680;-84
2023/11/24 02:48:42;;;;;;;0.30;0.30;;;8.50;99.90;;;;;;4988094;28;20314;-83
2023/11/24 02:51:08;;;;;;;0.40;0.40;;;8.50;99.90;;;;;;4988270;28;21082;-84
2023/11/24 02:53:37;;;;;;;0.20;0.20;;;8.40;99.90;;;;;;4988465;28;20183;-82
2023/11/24 02:56:04;;;;;;;0.10;0.10;;;8.40;99.90;;;;;;4988393;28;20194;-83
2023/11/24 02:58:31;;;;;;;2.53;0.63;;;8.50;99.90;;;;;;4970351;28;20247;-84
2023/11/24 03:00:57;;;;;;;0.43;0.43;;;8.60;99.90;;;;;;5004992;28;20317;-84
2023/11/24 03:03:27;;;;;;;0.27;0.27;;;8.60;99.90;;;;;;4983293;28;20211;-83
2023/11/24 03:05:54;;;;;;;0.57;0.57;;;8.80;99.90;;;;;;4996150;28;20218;-84
2023/11/24 03:08:20;;;;;;;0.87;0.60;;;8.80;99.90;;;;;;5000992;28;20229;-85
2023/11/24 03:10:46;;;;;;;0.20;0.20;;;8.20;99.90;;;;;;4983796;28;20215;-85
2023/11/24 03:13:13;;;;;;;0.40;0.40;;;7.90;99.90;;;;;;4974784;28;20222;-84
2023/11/24 03:15:40;;;;;;;0.20;0.20;;;7.80;99.90;;;;;;4983329;28;20310;-84
2023/11/24 03:18:06;;;;;;;0.63;0.63;;;7.70;99.90;;;;;;4983983;28;20227;-83
2023/11/24 03:20:32;;;;;;;0.20;0.20;;;7.70;99.90;;;;;;4982740;28;20298;-84
2023/11/24 03:22:58;;;;;;;0.20;0.20;;;7.70;99.90;;;;;;4977682;28;20194;-85
2023/11/24 03:25:24;;;;;;;0.10;0.10;;;7.70;99.90;;;;;;4998074;28;20689;-82
2023/11/24 03:27:49;;;;;;;0.30;0.30;;;7.90;99.90;;;;;;4986418;28;20694;-84
2023/11/24 03:30:15;;;;;;;0.40;0.30;;;8.00;99.90;;;;;;4986140;28;21180;-84
2023/11/24 03:32:41;;;;;;;0.10;0.10;;;8.10;99.90;;;;;;4971147;28;20180;-83
2023/11/24 03:35:07;;;;;;;0.10;0.10;;;8.20;99.90;;;;;;4982640;28;20203;-84
2023/11/24 03:37:33;;;;;;;0.20;0.20;;;8.30;99.90;;;;;;4970138;28;20243;-82
2023/11/24 03:39:59;;;;;;;0.97;0.50;;;8.40;99.90;;;;;;4970457;28;20322;-85
2023/11/24 03:42:25;;;;;;;0.20;0.20;;;8.50;99.90;;;;;;4970789;28;20245;-82
2023/11/24 03:44:51;;;;;;;7.70;0.87;;;8.70;99.90;;;;;;4986577;28;20691;-83
2023/11/24 03:47:17;;;;;;;0.10;0.10;;;8.50;99.90;;;;;;4971197;28;20226;-85
2023/11/24 03:49:43;;;;;;;0.97;0.30;;;8.10;99.90;;;;;;4984464;28;20215;-82
2023/11/24 03:52:09;;;;;;;0.33;0.33;;;7.90;99.90;;;;;;4967492;28;20212;-83
2023/11/24 03:54:34;;;;;;;0.20;0.20;;;7.80;99.90;;;;;;4998273;28;20766;-82
2023/11/24 03:57:00;;;;;;;0.40;0.40;;;7.80;99.90;;;;;;4972325;28;20303;-83
2023/11/24 03:59:26;;;;;;;0.10;0.10;;;7.90;99.90;;;;;;4981714;28;20321;-83
2023/11/24 04:01:51;;;;;;;0.20;0.20;;;7.90;99.90;;;;;;4938861;28;20180;-83
2023/11/24 04:04:17;;;;;;;0.30;0.30;;;7.90;99.90;;;;;;4938604;28;20217;-84
2023/11/24 04:06:43;;;;;;;0.13;0.13;;;7.90;99.90;;;;;;4970045;28;21006;-85
2023/11/24 04:09:10;;;;;;;0.20;0.20;;;7.80;99.90;;;;;;4945480;28;20805;-83
2023/11/24 04:11:36;;;;;;;0.30;0.30;;;7.80;99.90;;;;;;4977394;28;20198;-82
2023/11/24 04:14:02;;;;;;;0.70;0.70;;;8.00;99.90;;;;;;4983351;28;21119;-84
2023/11/24 04:16:29;;;;;;;0.20;0.20;;;7.90;99.90;;;;;;4968281;28;20238;-84
2023/11/24 04:18:55;;;;;;;0.30;0.30;;;8.00;99.90;;;;;;4969358;28;20234;-82
2023/11/24 04:21:21;;;;;;;0.10;0.10;;;8.00;99.90;;;;;;5002235;28;20229;-85
2023/11/24 04:23:47;;;;;;;0.50;0.50;;;8.10;99.90;;;;;;4969778;28;20227;-83
2023/11/24 04:26:13;;;;;;;0.40;0.30;;;8.00;99.90;;;;;;4969527;28;20199;-81
2023/11/24 04:28:39;;;;;;;0.13;0.13;;;8.00;99.90;;;;;;5000847;28;20227;-82
2023/11/24 04:31:05;;;;;;;0.27;0.27;;;8.10;99.90;;;;;;4984521;28;20250;-82
2023/11/24 04:33:31;;;;;;;0.20;0.20;;;8.00;99.90;;;;;;4985743;28;21058;-84
2023/11/24 04:35:57;;;;;;;0.20;0.20;;;8.10;99.90;;;;;;4970866;28;20223;-82
2023/11/24 04:38:23;;;;;;;0.27;0.27;;;8.10;99.90;;;;;;4970760;28;20188;-82
2023/11/24 04:40:49;;;;;;;0.20;0.20;;;8.20;99.90;;;;;;4962117;28;20206;-84
2023/11/24 04:43:15;;;;;;;0.20;0.20;;;8.10;99.90;;;;;;4983858;28;20227;-81
2023/11/24 04:45:40;;;;;;;0.70;0.43;;;8.30;99.90;;;;;;4970585;28;20280;-83
2023/11/24 04:48:12;;;;;;;0.20;0.20;;;8.40;99.90;;;;;;4986760;28;20354;-83
2023/11/24 04:50:38;;;;;;;2.13;0.63;;;8.10;99.90;;;;;;4986122;28;20591;-83
2023/11/24 04:53:04;;;;;;;0.20;0.20;;;7.70;99.90;;;;;;4986845;28;20647;-83
2023/11/24 04:55:30;;;;;;;0.13;0.13;;;7.50;99.90;;;;;;4969894;28;20242;-81
2023/11/24 04:57:55;;;;;;;0.40;0.40;;;7.30;99.90;;;;;;4970263;28;20287;-81
2023/11/24 05:00:21;;;;;;;0.10;0.10;;;7.20;99.90;;;;;;5001610;28;20645;-83
2023/11/24 05:02:49;;;;;;;0.30;0.30;;;7.30;99.90;;;;;;4954795;28;20223;-82
2023/11/24 05:05:17;;;;;;;0.20;0.20;;;7.40;99.90;;;;;;4954723;28;20198;-82
2023/11/24 05:07:43;;;;;;;0.20;0.20;;;7.50;99.90;;;;;;4951671;28;20238;-81
2023/11/24 05:10:08;;;;;;;1.93;1.87;;;7.60;99.90;;;;;;5002787;28;20258;-82
2023/11/24 05:12:37;;;;;;;0.50;0.50;;;7.70;99.90;;;;;;4954803;28;20219;-81
2023/11/24 05:15:07;;;;;;;2.93;0.50;;;7.80;99.90;;;;;;4970828;28;20630;-81
2023/11/24 05:17:34;;;;;;;0.40;0.40;;;7.80;99.90;;;;;;5003212;28;20192;-82
2023/11/24 05:20:00;;;;;;;0.20;0.20;;;8.00;99.90;;;;;;4990423;28;20219;-81
2023/11/24 05:22:26;;;;;;;0.43;0.43;;;7.90;99.90;;;;;;4996744;28;20230;-83
2023/11/24 05:24:52;;;;;;;0.33;0.33;;;7.90;99.90;;;;;;4973649;28;20215;-81
2023/11/24 05:27:18;;;;;;;0.67;0.40;;;7.90;99.90;;;;;;4989458;28;20250;-84
2023/11/24 05:29:43;;;;;;;0.87;0.40;;;8.10;99.90;;;;;;4965522;28;20215;-84
2023/11/24 05:32:11;;;;;;;2.33;1.83;;;8.20;99.90;;;;;;4974033;28;20231;-82
2023/11/24 05:34:36;;;;;;;0.50;0.50;;;7.90;99.90;;;;;;4973573;28;20223;-83
2023/11/24 05:37:03;;;;;;;0.80;0.80;;;7.90;99.90;;;;;;4972253;28;20273;-82
2023/11/24 05:39:29;;;;;;;2.23;0.23;;;7.50;99.90;;;;;;4973052;28;20231;-83
2023/11/24 05:41:54;;;;;;;0.20;0.20;;;7.60;99.90;;;;;;4973379;28;20230;-82
2023/11/24 05:44:21;;;;;;;0.10;0.10;;;7.50;99.90;;;;;;4974859;28;20200;-82
2023/11/24 05:46:48;;;;;;;0.83;0.63;;;7.50;99.90;;;;;;4989608;28;20255;-82
2023/11/24 05:49:16;;;;;;;0.17;0.17;;;7.50;99.90;;;;;;4958132;28;20706;-83
2023/11/24 05:51:43;;;;;;;0.20;0.20;;;7.50;99.90;;;;;;4988714;28;20223;-84
2023/11/24 05:54:10;;;;;;;0.10;0.10;;;7.60;99.90;;;;;;4989221;28;20231;-84
2023/11/24 05:56:36;;;;;;;1.40;1.30;;;7.50;99.90;;;;;;4973890;28;20278;-83
2023/11/24 05:59:01;;;;;;;0.13;0.13;;;7.30;99.90;;;;;;5011742;28;20276;-83
2023/11/24 06:01:27;;;;;;;0.17;0.17;;;7.30;99.90;;;;;;5007631;28;20214;-83
2023/11/24 06:03:53;;;;;;;0.40;0.40;;;6.80;99.90;;;;;;5025594;28;20218;-82
2023/11/24 06:06:19;;;;;;;1.90;0.30;;;6.90;99.90;;;;;;4992410;28;20214;-82
2023/11/24 06:08:45;;;;;;;0.37;0.37;;;6.80;99.90;;;;;;5008425;28;20244;-83
2023/11/24 06:11:11;;;;;;;0.50;0.50;;;6.80;99.90;;;;;;5008915;28;20191;-82
2023/11/24 06:13:37;;;;;;;0.10;0.10;;;6.80;99.90;;;;;;5008045;28;20215;-83
2023/11/24 06:16:03;;;;;;;0.20;0.20;;;6.80;99.90;;;;;;4991240;28;20799;-85
2023/11/24 06:18:30;;;;;;;0.57;0.57;;;6.80;99.90;;;;;;5021742;28;20221;-83
2023/11/24 06:20:56;;;;;;;0.73;0.73;;;6.90;99.90;;;;;;5001254;28;20219;-83
2023/11/24 06:23:22;;;;;;;0.10;0.10;;;6.90;99.90;;;;;;5026325;28;20561;-84
2023/11/24 06:25:48;;;;;;;0.20;0.20;;;7.00;99.90;;;;;;5000955;28;20281;-83
2023/11/24 06:28:14;;;;;;;0.40;0.40;;;7.20;99.90;;;;;;5000131;28;20333;-84
2023/11/24 06:30:40;;;;;;;0.20;0.20;;;7.00;99.90;;;;;;5015731;28;20282;-82
2023/11/24 06:33:05;;;;;;;0.10;0.10;;;6.80;99.90;;;;;;4989593;28;20241;-84
2023/11/24 06:35:31;;;;;;;0.20;0.20;;;6.60;99.90;;;;;;5004823;28;20241;-83
2023/11/24 06:37:57;;;;;;;0.50;0.40;;;6.80;99.90;;;;;;5023759;28;20275;-83
2023/11/24 06:40:24;;;;;;;0.20;0.20;;;7.00;99.90;;;;;;5015095;28;20246;-82
2023/11/24 06:42:50;;;;;;;7.53;0.93;;;7.20;99.90;;;;;;5013922;28;20225;-81
2023/11/24 06:45:16;;;;;;;1.00;0.40;;;7.20;99.90;;;;;;4989805;28;20683;-83
2023/11/24 06:47:42;;;;;;;0.70;0.70;;;6.50;99.90;;;;;;5021667;28;20718;-82
2023/11/24 06:50:09;;;;;;;0.87;0.30;;;6.50;99.90;;;;;;5001167;28;20241;-82
2023/11/24 06:52:35;;;;;;;1.17;1.07;;;6.70;99.90;;;;;;5011451;28;20214;-83
2023/11/24 06:55:01;;;;;;;2.33;1.07;;;6.90;99.90;;;;;;5004324;28;20214;-83
2023/11/24 06:57:27;;;;;;;0.20;0.20;;;6.70;99.90;;;;;;5019583;28;20910;-83
2023/11/24 06:59:53;;;;;;;1.23;0.40;;;6.60;99.90;;;;;;4989532;28;20231;-84
2023/11/24 07:02:19;;;;;;;10.20;1.70;;;6.60;99.90;;;;;;4989349;28;20198;-83
2023/11/24 07:04:45;;;;;;;0.30;0.30;;;6.80;99.90;;;;;;5005563;28;21014;-83
2023/11/24 07:07:11;;;;;;;0.37;0.37;;;7.00;99.90;;;;;;4981123;28;20271;-82
2023/11/24 07:09:38;;;;;;;1.20;0.40;;;7.20;99.90;;;;;;4977174;28;20694;-84
2023/11/24 07:12:04;;;;;;;1.13;0.33;;;7.30;99.90;;;;;;4989434;28;20767;-82
2023/11/24 07:14:29;;;;;;;0.43;0.43;;;7.30;99.90;;;;;;4988390;28;20191;-82
2023/11/24 07:16:55;;;;;;;0.30;0.30;;;7.30;99.90;;;;;;4988685;28;20187;-82
2023/11/24 07:19:22;;;;;;;0.43;0.43;;;7.10;99.90;;;;;;5004900;28;20804;-83
2023/11/24 07:21:48;;;;;;;0.40;0.40;;;7.00;99.90;;;;;;5001505;28;20254;-81
2023/11/24 07:24:17;;;;;;;0.60;0.60;;;6.90;99.90;;;;;;4987867;28;21170;-84
2023/11/24 07:26:43;;;;;;;0.20;0.20;;;7.00;99.90;;;;;;5017901;28;21314;-82
2023/11/24 07:29:09;;;;;;;0.40;0.40;;;6.70;99.90;;;;;;4970524;28;20196;-81
2023/11/24 07:31:35;;;;;;;2.50;0.40;;;6.70;99.90;;;;;;4960369;28;21019;-81
2023/11/24 07:34:00;;;;;;;0.43;0.30;;;6.80;99.90;;;;;;5001622;28;20231;-84
2023/11/24 07:36:26;;;;;;;0.20;0.20;;;6.70;99.90;;;;;;4979209;28;20288;-83
2023/11/24 07:38:52;;;;;;;0.50;0.50;;;6.70;99.90;;;;;;4978839;28;20234;-83
2023/11/24 07:41:18;;;;;;;0.10;0.10;;;6.70;99.90;;;;;;4989233;28;20216;-81
2023/11/24 07:43:44;;;;;;;0.47;0.47;;;6.90;99.90;;;;;;4981575;28;20324;-82
2023/11/24 07:46:11;;;;;;;0.20;0.20;;;7.00;99.90;;;;;;5021582;28;20677;-84
2023/11/24 07:48:37;;;;;;;0.60;0.60;;;7.20;99.90;;;;;;4987818;28;20207;-82
2023/11/24 07:51:06;;;;;;;0.57;0.30;;;7.50;99.90;;;;;;4999642;28;20219;-85
2023/11/24 07:53:33;;;;;;;2.10;1.63;;;7.60;99.90;;;;;;4970587;28;20278;-82
2023/11/24 07:55:59;;;;;;;1.67;0.83;;;7.70;99.90;;;;;;4988297;28;20183;-83
2023/11/24 07:58:25;;;;;;;0.50;0.47;;;7.70;99.90;;;;;;4988926;28;20250;-81
2023/11/24 08:00:51;;;;;;;0.63;0.63;;;7.90;99.90;;;;;;5013850;28;20234;-82
2023/11/24 08:03:18;;;;;;;0.87;0.50;;;7.50;99.90;;;;;;5022721;28;20335;-83
2023/11/24 08:05:44;;;;;;;0.30;0.30;;;7.40;99.90;;;;;;4997984;28;20695;-84
2023/11/24 08:08:10;;;;;;;0.83;0.73;;;7.40;99.90;;;;;;5000142;28;20211;-82
2023/11/24 08:10:36;;;;;;;0.53;0.53;;;7.50;99.90;;;;;;4989222;28;20226;-83
2023/11/24 08:13:02;;;;;;;0.20;0.20;;;7.60;99.90;;;;;;5005697;28;20245;-83
2023/11/24 08:15:28;;;;;;;1.40;0.67;;;7.80;99.90;;;;;;5004151;28;20593;-82
2023/11/24 08:17:53;;;;;;;1.40;0.53;;;7.60;99.90;;;;;;5020721;28;20221;-83
2023/11/24 08:20:20;;;;;;;0.83;0.83;;;7.40;99.90;;;;;;5019295;28;20423;-83
2023/11/24 08:22:47;;;;;;;0.83;0.83;;;7.30;99.90;;;;;;5027274;28;20237;-84
2023/11/24 08:25:16;;;;;;;0.20;0.20;;;7.30;99.90;;;;;;5019619;28;20229;-83
2023/11/24 08:27:44;;;;;;;0.20;0.20;;;7.40;99.90;;;;;;5023091;28;20223;-85
2023/11/24 08:30:10;;;;;;;0.80;0.80;;;7.60;99.90;;;;;;5024391;28;20251;-86
2023/11/24 08:32:38;;;;;;;2.57;0.63;;;7.60;99.90;;;;;;5008668;28;20195;-83
2023/11/24 08:35:06;;;;;;;1.23;0.53;;;7.50;99.90;;;;;;4999803;28;20176;-83
2023/11/24 08:37:34;;;;;;;1.80;0.53;;;7.50;99.90;;;;;;5012633;28;20746;-85
2023/11/24 08:40:02;;;;;;;0.33;0.33;;;7.50;99.90;;;;;;4999305;28;20269;-86
2023/11/24 08:42:30;;;;;;;1.90;0.53;;;7.60;99.90;;;;;;5010443;28;20219;-85
2023/11/24 08:44:57;;;;;;;0.67;0.57;;;7.60;99.90;;;;;;5011275;28;20305;-86
2023/11/24 08:47:25;;;;;;;1.30;0.47;;;7.70;99.90;;;;;;5006487;28;20240;-84
2023/11/24 08:49:50;;;;;;;0.60;0.40;;;7.90;99.90;;;;;;5021699;28;20215;-84
2023/11/24 08:52:16;;;;;;;1.10;0.70;;;8.00;99.90;;;;;;5006933;28;20685;-84
2023/11/24 08:54:42;;;;;;;0.20;0.20;;;8.20;99.90;;;;;;5026196;28;20292;-84
2023/11/24 08:57:11;;;;;;;0.20;0.20;;;8.10;99.90;;;;;;5008080;28;20276;-84
2023/11/24 08:59:37;;;;;;;0.40;0.37;;;8.10;99.90;;;;;;5024548;28;20246;-83
2023/11/24 09:02:06;;;;;;;0.50;0.50;;;8.10;99.90;;;;;;5018312;28;20194;-84
2023/11/24 09:04:32;;;;;;;0.20;0.20;;;8.10;99.90;;;;;;5004927;28;20225;-85
2023/11/24 09:06:58;;;;;;;0.73;0.67;;;8.00;99.90;;;;;;4993482;28;20214;-84
2023/11/24 09:09:24;;;;;;;5.97;0.70;;;8.10;99.90;;;;;;5027644;28;20219;-85
2023/11/24 09:11:50;;;;;;;0.50;0.50;;;8.20;99.90;;;;;;5025192;28;20981;-84
2023/11/24 09:14:16;;;;;;;2.33;0.77;;;8.20;99.90;;;;;;5025826;28;20182;-84
2023/11/24 09:16:42;;;;;;;0.83;0.30;;;8.10;99.90;;;;;;5019000;28;21192;-84
2023/11/24 09:19:08;;;;;;;0.60;0.60;;;8.30;99.90;;;;;;5008462;28;20818;-83
2023/11/24 09:21:34;;;;;;;0.73;0.73;;;8.40;99.90;;;;;;5006188;28;20226;-84
2023/11/24 09:24:04;;;;;;;0.30;0.30;;;8.30;99.90;;;;;;5007624;28;20218;-83
2023/11/24 09:26:30;;;;;;;4.83;0.97;;;8.10;99.90;;;;;;5007690;28;20195;-83
2023/11/24 09:28:56;;;;;;;2.17;0.77;;;8.00;99.90;;;;;;5023917;28;20253;-83
2023/11/24 09:31:22;;;;;;;3.03;0.50;;;7.90;99.90;;;;;;5004877;28;20269;-84
2023/11/24 09:33:47;;;;;;;2.23;0.40;;;8.00;99.90;;;;;;5024561;28;20372;-84
2023/11/24 09:36:13;;;;;;;9.90;0.73;;;8.20;99.90;;;;;;4991271;28;20682;-84
2023/11/24 09:38:39;;;;;;;1.20;0.83;;;8.40;99.90;;;;;;5040650;28;20698;-84
2023/11/24 09:41:11;;;;;;;0.63;0.40;;;8.40;99.90;;;;;;5001878;28;20191;-83
2023/11/24 09:43:37;;;;;;;0.87;0.53;;;8.40;99.90;;;;;;5022921;28;20679;-84
2023/11/24 09:46:07;;;;;;;3.90;2.20;;;8.60;99.90;;;;;;5000577;28;20215;-84
2023/11/24 09:48:34;;;;;;;0.20;0.20;;;8.50;99.90;;;;;;5012910;28;20334;-85
2023/11/24 09:51:03;;;;;;;0.73;0.73;;;8.40;99.90;;;;;;5001894;28;21356;-84
2023/11/24 09:53:36;;;;;;;2.17;1.10;;;8.60;99.90;;;;;;5022568;28;20186;-83
2023/11/24 09:56:05;;;;;;;1.30;0.90;;;8.70;99.90;;;;;;5005910;28;20221;-83
2023/11/24 09:58:34;;;;;;;0.73;0.67;;;8.20;99.90;;;;;;5017597;28;20242;-84
2023/11/24 10:01:15;;;;;;;3.90;1.13;;;7.90;99.90;;;;;;4981289;28;21012;-84
2023/11/24 10:03:46;;;;;;;5.37;0.90;;;7.90;99.90;;;;;;4987033;28;20223;-82
2023/11/24 10:06:13;;;;;;;2.10;0.60;;;7.90;99.90;;;;;;4987567;28;20265;-82
2023/11/24 10:08:40;;;;;;;2.17;0.60;;;7.90;99.90;;;;;;4987230;28;21186;-82
2023/11/24 10:11:12;;;;;;;2.40;0.77;;;7.90;99.90;;;;;;4987720;28;20630;-83
2023/11/24 10:13:42;;;;;;;0.93;0.63;;;7.90;99.90;;;;;;4987399;28;20227;-83
2023/11/24 10:16:11;;;;;;;2.63;1.17;;;7.80;99.90;;;;;;5004669;28;20211;-83
2023/11/24 10:18:38;;;;;;;0.20;0.20;;;7.80;99.90;;;;;;4969696;28;20603;-81
2023/11/24 10:21:11;;;;;;;0.63;0.60;;;7.90;99.90;;;;;;4971201;28;20235;-82
2023/11/24 10:23:38;;;;;;;1.97;0.70;;;8.10;99.90;;;;;;4984658;28;20246;-83
2023/11/24 10:26:18;;;;;;;0.33;0.30;;;8.30;99.90;;;;;;4987867;28;20302;-82
2023/11/24 10:28:45;;;;;;;0.80;0.40;;;7.30;99.90;;;;;;4986833;28;20218;-82
2023/11/24 10:31:15;;;;;;;1.90;0.40;;;6.70;99.90;;;;;;5004481;28;20231;-83
2023/11/24 10:33:41;;;;;;;0.77;0.77;;;7.00;99.90;;;;;;4986445;28;20222;-82
2023/11/24 10:36:08;;;;;;;0.37;0.37;;;7.30;99.90;;;;;;4954887;28;20219;-83
2023/11/24 10:38:39;;;;;;;0.27;0.27;;;7.40;99.90;;;;;;4987356;28;20192;-83
2023/11/24 10:41:12;;;;;;;1.40;0.83;;;7.50;99.90;;;;;;4981945;28;20190;-83
2023/11/24 10:43:38;;;;;;;0.33;0.33;;;7.50;99.90;;;;;;5004956;28;20233;-84
2023/11/24 10:46:11;;;;;;;0.50;0.50;;;7.50;99.90;;;;;;4987431;28;20313;-83
2023/11/24 10:48:47;;;;;;;1.50;0.73;;;7.70;99.90;;;;;;5002505;28;20219;-83
2023/11/24 10:51:29;;;;;;;3.73;0.67;;;7.90;99.90;;;;;;5002499;28;20249;-82
2023/11/24 10:53:59;;;;;;;0.30;0.30;;;7.50;99.90;;;;;;5002580;28;20227;-82
2023/11/24 10:56:29;;;;;;;2.00;1.20;;;7.10;99.90;;;;;;4982677;28;20238;-83
2023/11/24 10:58:56;;;;;;;0.83;0.60;;;7.00;99.90;;;;;;5002714;28;20239;-82
2023/11/24 11:01:22;;;;;;;0.67;0.67;;;7.10;99.90;;;;;;4976170;28;20215;-83
2023/11/24 11:03:55;;;;;;;0.27;0.27;;;7.20;99.90;;;;;;4986639;28;20215;-80
2023/11/24 11:06:29;;;;;;;0.83;0.80;;;7.40;99.90;;;;;;5004504;28;20285;-85
2023/11/24 11:09:09;;;;;;;1.60;1.27;;;7.40;99.90;;;;;;5003515;28;20211;-85
2023/11/24 11:12:13;;;;;;;3.93;0.83;;;7.40;99.90;;;;;;5013725;28;20186;-81
2023/11/24 11:14:42;;;;;;;5.63;0.50;;;7.50;99.90;;;;;;4999820;28;20186;-82
2023/11/24 11:17:19;;;;;;;0.77;0.77;;;7.90;99.90;;;;;;5002211;28;20516;-83
2023/11/24 11:19:58;;;;;;;1.00;0.70;;;7.90;99.90;;;;;;4964587;28;20791;-83
2023/11/24 11:22:29;;;;;;;1.87;0.60;;;7.80;99.90;;;;;;5002049;28;20223;-83
2023/11/24 11:25:23;;;;;;;0.30;0.30;;;7.90;99.90;;;;;;5003110;28;20207;-82
2023/11/24 11:27:49;;;;;;;0.97;0.90;;;7.90;99.90;;;;;;4978782;28;20255;-83
2023/11/24 11:30:22;;;;;;;0.53;0.53;;;8.00;99.90;;;;;;5000857;28;20648;-80
2023/11/24 11:33:10;;;;;;;0.60;0.40;;;8.00;99.90;;;;;;4981121;28;20317;-83
2023/11/24 11:35:35;;;;;;;1.97;0.33;;;7.90;99.90;;;;;;4985010;28;20260;-84
2023/11/24 11:38:04;;;;;;;0.57;0.33;;;8.00;99.90;;;;;;4985777;28;20775;-84
2023/11/24 11:40:35;;;;;;;0.83;0.80;;;8.10;99.90;;;;;;4977980;28;20239;-80
2023/11/24 11:43:08;;;;;;;1.50;0.53;;;8.10;99.90;;;;;;4963777;28;20575;-82
2023/11/24 11:45:46;;;;;;;2.13;0.40;;;8.20;99.90;;;;;;5001565;28;20235;-84
2023/11/24 11:48:13;;;;;;;0.20;0.20;;;8.00;99.90;;;;;;4981910;28;20272;-84
2023/11/24 11:50:54;;;;;;;0.53;0.40;;;7.80;99.90;;;;;;4981651;28;20203;-82
2023/11/24 11:53:21;;;;;;;0.23;0.23;;;7.30;99.90;;;;;;4999471;28;20187;-82
2023/11/24 11:55:48;;;;;;;0.10;0.10;;;7.30;99.90;;;;;;4981885;28;20221;-83
2023/11/24 11:58:13;;;;;;;1.50;0.83;;;7.60;99.90;;;;;;4998520;28;20235;-83
2023/11/24 12:00:40;;;;;;;1.50;1.40;;;8.10;99.90;;;;;;4991485;28;20796;-83
2023/11/24 12:03:06;;;;;;;1.27;0.70;;;7.80;99.90;;;;;;4970249;28;20219;-84
2023/11/24 12:05:33;;;;;;;0.23;0.20;;;7.20;99.90;;;;;;4970402;28;20183;-84
2023/11/24 12:08:00;;;;;;;0.43;0.43;;;6.50;99.90;;;;;;4999030;28;20229;-83
2023/11/24 12:10:29;;;;;;;0.30;0.30;;;6.60;99.90;;;;;;4969316;28;20226;-83
2023/11/24 12:12:55;;;;;;;6.70;1.60;;;6.90;99.90;;;;;;4985361;28;20264;-84
2023/11/24 12:15:23;;;;;;;16.53;0.50;;;6.90;99.90;;;;;;5003080;28;20669;-84
2023/11/24 12:17:52;;;;;;;0.30;0.30;;;7.00;99.90;;;;;;4954306;28;21044;-84
2023/11/24 12:20:18;;;;;;;2.87;0.87;;;7.30;99.90;;;;;;5003207;28;20305;-84
2023/11/24 12:22:45;;;;;;;4.83;1.47;;;7.50;99.90;;;;;;4982225;28;20225;-81
2023/11/24 12:25:12;;;;;;;0.50;0.50;;;7.80;99.90;;;;;;4998320;28;20254;-84
2023/11/24 12:27:44;;;;;;;0.60;0.60;;;7.90;99.90;;;;;;4985008;28;20616;-82
2023/11/24 12:30:14;;;;;;;0.77;0.70;;;8.00;99.90;;;;;;4985139;28;20235;-81
2023/11/24 12:32:41;;;;;;;3.30;0.97;;;8.10;99.90;;;;;;5002301;28;20274;-84
2023/11/24 12:35:08;;;;;;;1.53;0.60;;;8.00;99.90;;;;;;4986367;28;20183;-83
2023/11/24 12:37:46;;;;;;;0.20;0.20;;;7.00;99.90;;;;;;4971611;28;20211;-82
2023/11/24 12:40:12;;;;;;;0.40;0.40;;;6.40;99.90;;;;;;4982342;28;20227;-82
2023/11/24 12:42:41;;;;;;;0.47;0.30;;;6.20;99.90;;;;;;4989957;28;20219;-83
2023/11/24 12:45:08;;;;;;;0.30;0.30;;;6.30;99.90;;;;;;4989104;28;20250;-82
2023/11/24 12:47:35;;;;;;;0.57;0.57;;;6.60;99.90;;;;;;5006543;28;20277;-82
2023/11/24 12:50:11;;;;;;;0.67;0.67;;;7.00;99.90;;;;;;4988572;28;20302;-84
2023/11/24 12:52:39;;;;;;;0.97;0.97;;;7.20;99.90;;;;;;5007029;28;20968;-83
2023/11/24 12:55:08;;;;;;;2.13;0.97;;;7.20;99.90;;;;;;4988040;28;20494;-84
2023/11/24 12:57:35;;;;;;;0.77;0.77;;;7.20;99.90;;;;;;5005126;28;20219;-81
2023/11/24 13:00:35;;;;;;;1.43;0.93;;;6.50;99.90;;;;;;5001095;28;20258;-83